createdAt,value
2019-04-01T00:00:36.487Z,15.00
2019-04-01T00:03:06.738Z,15.68
2019-04-01T00:05:36.178Z,19.12
2019-04-01T00:08:05.586Z,16.32
2019-04-01T00:10:35.031Z,21.65
2019-04-01T00:13:04.446Z,19.57
2019-04-01T00:15:33.884Z,18.75
2019-04-01T00:18:03.308Z,19.77
2019-04-01T00:20:32.739Z,16.73
2019-04-01T00:23:02.421Z,18.75
2019-04-01T00:25:31.963Z,19.48
2019-04-01T00:28:01.381Z,14.13
2019-04-01T00:30:30.824Z,15.05
2019-04-01T00:33:00.238Z,13.18
2019-04-01T00:35:29.684Z,13.75
2019-04-01T00:37:59.104Z,15.28
2019-04-01T00:40:28.556Z,15.70
2019-04-01T00:43:05.567Z,20.27
2019-04-01T00:45:36.644Z,22.17
2019-04-01T00:48:06.054Z,20.92
2019-04-01T00:50:35.501Z,20.62
2019-04-01T00:53:04.912Z,20.82
2019-04-01T00:55:34.407Z,21.27
2019-04-01T00:58:03.828Z,21.75
2019-04-01T01:00:33.289Z,22.77
2019-04-01T01:03:02.682Z,20.77
2019-04-01T01:05:32.128Z,22.45
2019-04-01T01:08:01.550Z,23.55
2019-04-01T01:10:31.121Z,23.35
2019-04-01T01:13:02.007Z,24.37
2019-04-01T01:15:31.490Z,23.50
2019-04-01T01:18:01.197Z,23.80
2019-04-01T01:20:30.644Z,24.50
2019-04-01T01:23:00.158Z,24.32
2019-04-01T01:25:29.581Z,23.80
2019-04-01T01:27:58.996Z,22.90
2019-04-01T01:30:28.437Z,22.67
2019-04-01T01:32:57.851Z,24.00
2019-04-01T01:35:27.291Z,23.62
2019-04-01T01:37:56.706Z,23.98
2019-04-01T01:40:26.149Z,21.40
2019-04-01T01:42:55.565Z,21.27
2019-04-01T01:45:24.999Z,20.68
2019-04-01T01:47:54.443Z,21.45
2019-04-01T01:50:23.850Z,20.02
2019-04-01T01:52:53.289Z,18.48
2019-04-01T01:55:22.704Z,16.70
2019-04-01T01:57:52.231Z,16.50
2019-04-01T02:00:22.510Z,14.28
2019-04-01T02:02:51.963Z,13.95
2019-04-01T02:05:21.388Z,12.55
2019-04-01T02:07:50.818Z,9.93
2019-04-01T02:10:20.530Z,10.40
2019-04-01T02:12:49.959Z,9.30
2019-04-01T02:15:19.371Z,8.83
2019-04-01T02:17:49.951Z,7.42
2019-04-01T02:20:19.703Z,7.65
2019-04-01T02:22:49.145Z,7.85
2019-04-01T02:25:18.556Z,8.80
2019-04-01T02:27:48.023Z,8.35
2019-04-01T02:30:17.635Z,9.53
2019-04-01T02:32:47.087Z,10.38
2019-04-01T02:35:16.497Z,9.95
2019-04-01T02:37:45.944Z,10.75
2019-04-01T02:40:15.368Z,11.65
2019-04-01T02:42:45.019Z,9.85
2019-04-01T02:45:15.813Z,10.72
2019-04-01T02:47:45.251Z,12.85
2019-04-01T02:50:14.817Z,20.20
2019-04-01T02:52:44.281Z,18.82
2019-04-01T02:55:13.698Z,19.95
2019-04-01T02:57:43.208Z,17.70
2019-04-01T03:00:12.631Z,18.57
2019-04-01T03:02:42.070Z,15.20
2019-04-01T03:05:12.248Z,11.95
2019-04-01T03:07:41.694Z,6.35
2019-04-01T03:10:11.232Z,7.00
2019-04-01T03:12:40.624Z,7.08
2019-04-01T03:15:10.038Z,6.15
2019-04-01T03:17:39.471Z,8.08
2019-04-01T03:20:09.042Z,8.03
2019-04-01T03:22:38.476Z,9.88
2019-04-01T03:25:07.888Z,8.00
2019-04-01T03:27:37.334Z,7.97
2019-04-01T03:30:06.742Z,7.37
2019-04-01T03:32:43.923Z,6.97
2019-04-01T03:35:07.316Z,8.53
2019-04-01T03:37:36.805Z,9.18
2019-04-01T03:40:06.490Z,10.03
2019-04-01T03:42:35.935Z,13.30
2019-04-01T03:45:06.116Z,13.35
2019-04-01T03:47:35.564Z,17.05
2019-04-01T03:50:05.444Z,21.33
2019-04-01T03:52:34.886Z,19.57
2019-04-01T03:55:04.672Z,24.18
2019-04-01T03:57:34.123Z,21.40
2019-04-01T04:00:05.364Z,23.73
2019-04-01T04:02:34.814Z,23.00
2019-04-01T04:05:06.040Z,26.15
2019-04-01T04:07:35.486Z,25.48
2019-04-01T04:10:06.475Z,24.47
2019-04-01T04:12:35.917Z,25.82
2019-04-01T04:15:06.086Z,27.58
2019-04-01T04:17:35.532Z,25.65
2019-04-01T04:20:05.214Z,25.65
2019-04-01T04:22:34.665Z,27.75
2019-04-01T04:25:05.119Z,27.90
2019-04-01T04:27:34.576Z,27.15
2019-04-01T04:30:05.545Z,27.98
2019-04-01T04:32:35.182Z,29.60
2019-04-01T04:35:05.636Z,29.37
2019-04-01T04:37:35.079Z,31.00
2019-04-01T04:40:06.428Z,31.15
2019-04-01T04:42:35.875Z,30.30
2019-04-01T04:45:06.441Z,27.73
2019-04-01T04:47:35.897Z,26.65
2019-04-01T04:50:05.474Z,27.30
2019-04-01T04:52:34.927Z,42.35
2019-04-01T04:55:05.206Z,35.98
2019-04-01T04:57:34.657Z,33.90
2019-04-01T05:00:06.416Z,32.13
2019-04-01T05:02:35.837Z,33.75
2019-04-01T05:05:06.469Z,31.87
2019-04-01T05:07:35.885Z,34.88
2019-04-01T05:10:07.478Z,32.20
2019-04-01T05:12:36.909Z,28.55
2019-04-01T05:15:07.348Z,29.00
2019-04-01T05:17:36.771Z,32.10
2019-04-01T05:20:06.330Z,30.77
2019-04-01T05:22:35.748Z,30.97
2019-04-01T05:25:05.480Z,32.33
2019-04-01T05:27:35.061Z,39.60
2019-04-01T05:30:07.656Z,37.88
2019-04-01T05:32:37.546Z,39.10
2019-04-01T05:35:07.063Z,36.58
2019-04-01T05:37:36.476Z,23.77
2019-04-01T05:40:06.156Z,44.10
2019-04-01T05:42:35.945Z,39.88
2019-04-01T05:45:06.837Z,23.00
2019-04-01T05:47:46.769Z,16.27
2019-04-01T05:50:16.246Z,17.27
2019-04-01T05:52:45.658Z,23.02
2019-04-01T05:55:15.104Z,17.77
2019-04-01T05:57:44.784Z,18.73
2019-04-01T06:00:20.986Z,15.78
2019-04-01T06:02:50.500Z,16.45
2019-04-01T06:05:20.060Z,18.27
2019-04-01T06:07:49.476Z,20.70
2019-04-01T06:10:19.408Z,27.65
2019-04-01T06:12:49.007Z,31.45
2019-04-01T06:15:21.364Z,18.65
2019-04-01T06:17:50.825Z,16.55
2019-04-01T06:20:20.264Z,16.60
2019-04-01T06:22:49.753Z,43.02
2019-04-01T06:25:19.244Z,21.23
2019-04-01T06:27:48.652Z,32.15
2019-04-01T06:30:18.109Z,23.85
2019-04-01T06:32:47.878Z,53.33
2019-04-01T06:35:17.355Z,29.10
2019-04-01T06:37:46.765Z,39.13
2019-04-01T06:40:16.228Z,86.65
2019-04-01T06:42:45.657Z,53.55
2019-04-01T06:45:15.101Z,30.55
2019-04-01T06:47:44.541Z,22.42
2019-04-01T06:50:13.991Z,17.57
2019-04-01T06:52:43.404Z,28.07
2019-04-01T06:55:12.849Z,30.08
2019-04-01T06:57:42.261Z,15.15
2019-04-01T07:00:11.707Z,15.18
2019-04-01T07:02:41.118Z,16.50
2019-04-01T07:05:12.625Z,18.67
2019-04-01T07:07:41.883Z,15.45
2019-04-01T07:10:11.335Z,58.13
2019-04-01T07:12:40.752Z,13.48
2019-04-01T07:15:10.201Z,11.00
2019-04-01T07:17:39.611Z,6.80
2019-04-01T07:20:09.264Z,6.33
2019-04-01T07:22:38.657Z,6.00
2019-04-01T07:25:08.099Z,7.65
2019-04-01T07:27:37.508Z,5.97
2019-04-01T07:30:06.958Z,6.25
2019-04-01T07:32:36.366Z,7.87
2019-04-01T07:35:05.816Z,12.85
2019-04-01T07:37:35.233Z,8.25
2019-04-01T07:40:05.706Z,6.53
2019-04-01T07:42:35.124Z,8.58
2019-04-01T07:45:06.580Z,7.53
2019-04-01T07:47:36.021Z,5.60
2019-04-01T07:50:06.253Z,5.95
2019-04-01T07:52:35.656Z,5.60
2019-04-01T07:55:06.438Z,5.67
2019-04-01T07:57:35.850Z,4.85
2019-04-01T08:00:08.216Z,5.17
2019-04-01T08:02:37.623Z,7.65
2019-04-01T08:05:07.078Z,4.20
2019-04-01T08:07:36.491Z,4.50
2019-04-01T08:10:07.102Z,5.75
2019-04-01T08:12:36.542Z,5.17
2019-04-01T08:15:07.051Z,3.65
2019-04-01T08:17:36.465Z,4.17
2019-04-01T08:20:05.984Z,3.47
2019-04-01T08:22:35.412Z,3.33
2019-04-01T08:25:06.487Z,3.45
2019-04-01T08:27:35.919Z,2.65
2019-04-01T08:30:08.306Z,2.47
2019-04-01T08:32:37.743Z,3.30
2019-04-01T08:35:07.153Z,2.25
2019-04-01T08:37:39.987Z,2.12
2019-04-01T08:40:07.693Z,2.77
2019-04-01T08:42:37.137Z,2.83
2019-04-01T08:45:09.474Z,4.25
2019-04-01T08:47:38.902Z,1.45
2019-04-01T08:50:08.316Z,2.10
2019-04-01T08:52:37.752Z,2.83
2019-04-01T08:55:07.402Z,2.30
2019-04-01T08:57:36.868Z,3.60
2019-04-01T09:00:08.990Z,0.78
2019-04-01T09:02:38.431Z,2.20
2019-04-01T09:05:07.835Z,2.22
2019-04-01T09:07:37.295Z,3.25
2019-04-01T09:10:06.698Z,1.25
2019-04-01T09:12:36.145Z,1.27
2019-04-01T09:15:07.187Z,0.65
2019-04-01T09:17:40.105Z,2.05
2019-04-01T09:20:07.728Z,1.32
2019-04-01T09:22:37.176Z,1.25
2019-04-01T09:25:06.595Z,0.90
2019-04-01T09:27:36.040Z,0.62
2019-04-01T09:30:08.653Z,0.98
2019-04-01T09:32:38.404Z,1.67
2019-04-01T09:35:07.816Z,5.85
2019-04-01T09:37:37.275Z,2.00
2019-04-01T09:40:07.348Z,1.25
2019-04-01T09:42:36.799Z,1.10
2019-04-01T09:45:07.344Z,6.70
2019-04-01T09:47:36.784Z,1.77
2019-04-01T09:50:06.208Z,1.57
2019-04-01T09:52:35.649Z,2.30
2019-04-01T09:55:06.442Z,1.20
2019-04-01T09:57:36.076Z,3.70
2019-04-01T10:00:08.438Z,1.90
2019-04-01T10:02:37.877Z,1.62
2019-04-01T10:05:07.451Z,0.90
2019-04-01T10:07:37.047Z,2.20
2019-04-01T10:10:06.590Z,6.12
2019-04-01T10:12:36.207Z,4.10
2019-04-01T10:15:06.991Z,2.60
2019-04-01T10:17:36.437Z,1.50
2019-04-01T10:20:07.987Z,3.25
2019-04-01T10:22:37.446Z,3.80
2019-04-01T10:25:06.863Z,1.30
2019-04-01T10:27:36.296Z,1.52
2019-04-01T10:30:07.615Z,1.82
2019-04-01T10:32:37.265Z,0.85
2019-04-01T10:35:07.147Z,0.90
2019-04-01T10:37:36.598Z,1.85
2019-04-01T10:40:07.075Z,0.80
2019-04-01T10:42:36.514Z,1.00
2019-04-01T10:45:08.635Z,1.10
2019-04-01T10:47:38.210Z,1.00
2019-04-01T10:50:07.701Z,1.12
2019-04-01T10:52:37.254Z,1.00
2019-04-01T10:55:06.667Z,1.20
2019-04-01T10:57:36.293Z,1.12
2019-04-01T11:00:08.507Z,1.30
2019-04-01T11:02:38.323Z,1.37
2019-04-01T11:05:08.176Z,1.75
2019-04-01T11:07:37.651Z,1.15
2019-04-01T11:10:11.724Z,0.88
2019-04-01T11:12:41.103Z,1.40
2019-04-01T11:15:10.541Z,2.45
2019-04-01T11:17:43.893Z,1.20
2019-04-01T11:20:13.986Z,1.30
2019-04-01T11:22:43.624Z,1.35
2019-04-01T11:25:13.073Z,1.20
2019-04-01T11:27:42.519Z,1.05
2019-04-01T11:30:13.859Z,9.75
2019-04-01T11:32:43.103Z,1.07
2019-04-01T11:35:12.536Z,1.32
2019-04-01T11:37:42.021Z,1.47
2019-04-01T11:40:12.366Z,1.05
2019-04-01T11:42:42.151Z,1.42
2019-04-01T11:45:11.907Z,1.07
2019-04-01T11:47:41.510Z,1.35
2019-04-01T11:50:10.994Z,1.40
2019-04-01T11:52:40.459Z,1.30
2019-04-01T11:55:09.943Z,1.50
2019-04-01T11:57:40.465Z,1.00
2019-04-01T12:00:17.545Z,1.20
2019-04-01T12:02:46.958Z,1.52
2019-04-01T12:05:19.627Z,1.80
2019-04-01T12:07:49.063Z,2.20
2019-04-01T12:10:18.528Z,1.40
2019-04-01T12:12:47.938Z,1.98
2019-04-01T12:15:17.436Z,1.62
2019-04-01T12:17:47.948Z,1.98
2019-04-01T12:20:17.416Z,1.05
2019-04-01T12:22:46.928Z,1.32
2019-04-01T12:25:16.383Z,1.30
2019-04-01T12:27:45.792Z,1.30
2019-04-01T12:30:15.231Z,1.50
2019-04-01T12:32:44.643Z,1.30
2019-04-01T12:35:14.123Z,19.12
2019-04-01T12:37:43.540Z,1.42
2019-04-01T12:40:12.984Z,1.27
2019-04-01T12:42:42.400Z,1.95
2019-04-01T12:45:11.843Z,2.98
2019-04-01T12:47:43.186Z,1.30
2019-04-01T12:50:12.488Z,1.00
2019-04-01T12:52:42.001Z,1.10
2019-04-01T12:55:11.456Z,2.40
2019-04-01T12:57:40.936Z,1.15
2019-04-01T13:00:11.850Z,4.22
2019-04-01T13:02:41.260Z,4.15
2019-04-01T13:05:10.706Z,3.62
2019-04-01T13:07:40.115Z,1.90
2019-04-01T13:10:09.620Z,3.70
2019-04-01T13:12:41.487Z,2.10
2019-04-01T13:15:13.137Z,2.37
2019-04-01T13:17:42.732Z,1.70
2019-04-01T13:20:13.949Z,1.80
2019-04-01T13:22:43.403Z,1.30
2019-04-01T13:25:13.048Z,1.15
2019-04-01T13:27:42.454Z,1.35
2019-04-01T13:30:12.137Z,3.62
2019-04-01T13:32:41.550Z,1.40
2019-04-01T13:35:10.992Z,2.85
2019-04-01T13:37:41.771Z,1.10
2019-04-01T13:40:11.235Z,3.10
2019-04-01T13:42:40.647Z,2.45
2019-04-01T13:45:10.093Z,1.52
2019-04-01T13:47:41.219Z,0.95
2019-04-01T13:50:10.644Z,2.58
2019-04-01T13:52:40.051Z,3.85
2019-04-01T13:55:10.094Z,1.30
2019-04-01T13:57:39.802Z,4.55
2019-04-01T14:00:09.296Z,1.10
2019-04-01T14:02:38.764Z,1.75
2019-04-01T14:05:08.879Z,1.55
2019-04-01T14:07:38.338Z,2.22
2019-04-01T14:10:07.851Z,1.40
2019-04-01T14:12:37.431Z,6.28
2019-04-01T14:15:07.017Z,2.15
2019-04-01T14:17:40.348Z,4.45
2019-04-01T14:20:10.241Z,1.30
2019-04-01T14:22:39.776Z,1.25
2019-04-01T14:25:09.185Z,3.80
2019-04-01T14:27:39.507Z,1.37
2019-04-01T14:30:09.147Z,1.92
2019-04-01T14:32:39.090Z,2.62
2019-04-01T14:35:08.505Z,3.20
2019-04-01T14:37:39.728Z,1.40
2019-04-01T14:40:09.178Z,1.77
2019-04-01T14:42:39.777Z,1.82
2019-04-01T14:45:09.686Z,2.00
2019-04-01T14:47:55.973Z,4.72
2019-04-01T14:50:10.727Z,3.12
2019-04-01T14:52:41.350Z,2.00
2019-04-01T14:55:11.110Z,1.80
2019-04-01T14:57:40.566Z,4.33
2019-04-01T15:00:12.018Z,3.27
2019-04-01T15:02:41.465Z,2.65
2019-04-01T15:05:10.981Z,2.47
2019-04-01T15:07:40.415Z,2.40
2019-04-01T15:10:10.400Z,1.80
2019-04-01T15:12:39.915Z,1.90
2019-04-01T15:15:09.977Z,3.55
2019-04-01T15:17:39.436Z,8.13
2019-04-01T15:20:08.868Z,4.00
2019-04-01T15:22:38.312Z,5.85
2019-04-01T15:25:08.000Z,3.05
2019-04-01T15:27:37.444Z,3.00
2019-04-01T15:30:08.100Z,2.83
2019-04-01T15:32:37.536Z,2.77
2019-04-01T15:35:07.520Z,2.62
2019-04-01T15:37:36.969Z,3.65
2019-04-01T15:40:07.165Z,18.30
2019-04-01T15:42:36.622Z,2.72
2019-04-01T15:45:06.426Z,4.67
2019-04-01T15:47:36.138Z,6.53
2019-04-01T15:50:06.312Z,6.72
2019-04-01T15:52:35.776Z,5.67
2019-04-01T15:55:07.866Z,4.62
2019-04-01T15:57:37.317Z,4.12
2019-04-01T16:00:06.814Z,3.92
2019-04-01T16:02:36.363Z,7.45
2019-04-01T16:05:07.224Z,5.67
2019-04-01T16:07:36.673Z,6.47
2019-04-01T16:10:06.153Z,7.15
2019-04-01T16:12:35.676Z,23.20
2019-04-01T16:15:06.846Z,15.20
2019-04-01T16:17:36.321Z,17.15
2019-04-01T16:20:08.420Z,16.00
2019-04-01T16:22:37.865Z,12.78
2019-04-01T16:25:07.453Z,9.95
2019-04-01T16:27:36.907Z,9.53
2019-04-01T16:30:07.973Z,7.85
2019-04-01T16:32:37.524Z,8.60
2019-04-01T16:35:07.022Z,7.67
2019-04-01T16:37:36.488Z,10.23
2019-04-01T16:40:06.456Z,8.45
2019-04-01T16:42:35.906Z,9.13
2019-04-01T16:45:06.897Z,10.53
2019-04-01T16:47:36.317Z,14.43
2019-04-01T16:50:09.430Z,9.20
2019-04-01T16:52:38.851Z,8.90
2019-04-01T16:55:08.295Z,6.92
2019-04-01T16:57:37.716Z,6.20
2019-04-01T17:00:08.964Z,7.72
2019-04-01T17:02:38.372Z,7.92
2019-04-01T17:05:07.879Z,6.10
2019-04-01T17:07:37.301Z,9.20
2019-04-01T17:10:07.412Z,6.65
2019-04-01T17:12:36.824Z,8.90
2019-04-01T17:15:06.270Z,8.50
2019-04-01T17:17:35.690Z,19.10
2019-04-01T17:20:06.384Z,7.97
2019-04-01T17:22:35.813Z,11.25
2019-04-01T17:25:06.696Z,10.00
2019-04-01T17:27:36.110Z,10.15
2019-04-01T17:30:11.470Z,12.90
2019-04-01T17:32:40.885Z,14.47
2019-04-01T17:35:10.354Z,11.60
2019-04-01T17:37:39.757Z,9.78
2019-04-01T17:40:10.526Z,15.20
2019-04-01T17:42:40.146Z,13.62
2019-04-01T17:45:16.235Z,14.55
2019-04-01T17:47:45.851Z,18.75
2019-04-01T17:50:15.425Z,16.67
2019-04-01T17:52:44.828Z,14.13
2019-04-01T17:55:14.272Z,11.60
2019-04-01T17:57:43.693Z,34.05
2019-04-01T18:00:17.753Z,33.33
2019-04-01T18:02:47.176Z,47.98
2019-04-01T18:05:16.651Z,32.93
2019-04-01T18:07:46.059Z,28.60
2019-04-01T18:10:15.511Z,28.00
2019-04-01T18:12:44.933Z,25.00
2019-04-01T18:15:16.097Z,17.60
2019-04-01T18:17:45.689Z,16.12
2019-04-01T18:20:15.309Z,16.65
2019-04-01T18:22:44.721Z,19.40
2019-04-01T18:25:14.178Z,15.75
2019-04-01T18:27:44.360Z,16.40
2019-04-01T18:30:14.691Z,15.03
2019-04-01T18:32:44.112Z,16.37
2019-04-01T18:35:13.577Z,15.93
2019-04-01T18:37:43.003Z,29.95
2019-04-01T18:40:12.540Z,23.42
2019-04-01T18:42:41.972Z,26.20
2019-04-01T18:45:11.426Z,25.17
2019-04-01T18:47:40.849Z,20.27
2019-04-01T18:50:10.300Z,31.37
2019-04-01T18:52:39.735Z,36.23
2019-04-01T18:55:09.172Z,32.30
2019-04-01T18:57:38.591Z,37.38
2019-04-01T19:00:09.676Z,32.95
2019-04-01T19:02:39.099Z,29.35
2019-04-01T19:05:10.034Z,33.85
2019-04-01T19:07:39.529Z,30.97
2019-04-01T19:10:09.013Z,34.20
2019-04-01T19:12:38.396Z,37.23
2019-04-01T19:15:09.857Z,27.60
2019-04-01T19:17:39.257Z,20.27
2019-04-01T19:20:08.848Z,20.80
2019-04-01T19:22:38.312Z,17.80
2019-04-01T19:25:07.743Z,19.52
2019-04-01T19:27:37.187Z,23.25
2019-04-01T19:30:07.348Z,22.85
2019-04-01T19:32:38.140Z,26.62
2019-04-01T19:35:09.476Z,34.53
2019-04-01T19:37:39.032Z,29.72
2019-04-01T19:40:08.451Z,33.40
2019-04-01T19:42:40.371Z,31.27
2019-04-01T19:45:11.963Z,31.70
2019-04-01T19:47:41.774Z,25.35
2019-04-01T19:50:11.189Z,29.45
2019-04-01T19:52:40.664Z,27.60
2019-04-01T19:55:10.355Z,28.12
2019-04-01T19:57:39.806Z,27.52
2019-04-01T20:00:09.223Z,26.82
2019-04-01T20:02:38.664Z,33.08
2019-04-01T20:05:08.110Z,22.90
2019-04-01T20:07:37.924Z,30.17
2019-04-01T20:10:07.347Z,39.67
2019-04-01T20:12:36.811Z,47.73
2019-04-01T20:15:11.935Z,39.05
2019-04-01T20:17:41.807Z,40.25
2019-04-01T20:20:14.251Z,39.73
2019-04-01T20:22:42.367Z,37.53
2019-04-01T20:25:14.678Z,49.53
2019-04-01T20:27:44.340Z,37.55
2019-04-01T20:30:15.104Z,36.98
2019-04-01T20:32:44.551Z,34.92
2019-04-01T20:35:23.289Z,33.40
2019-04-01T20:37:45.235Z,29.82
2019-04-01T20:40:14.607Z,27.52
2019-04-01T20:42:44.058Z,31.33
2019-04-01T20:45:13.823Z,29.12
2019-04-01T20:47:43.291Z,29.48
2019-04-01T20:50:13.884Z,33.10
2019-04-01T20:52:43.326Z,29.65
2019-04-01T20:55:13.496Z,32.20
2019-04-01T20:57:43.268Z,34.45
2019-04-01T21:00:12.683Z,26.37
2019-04-01T21:02:42.123Z,18.92
2019-04-01T21:05:11.537Z,19.12
2019-04-01T21:07:40.974Z,16.00
2019-04-01T21:10:10.392Z,13.98
2019-04-01T21:12:39.840Z,10.45
2019-04-01T21:15:09.284Z,12.50
2019-04-01T21:17:38.735Z,11.33
2019-04-01T21:20:08.222Z,13.58
2019-04-01T21:22:37.664Z,12.43
2019-04-01T21:25:07.219Z,11.48
2019-04-01T21:27:36.670Z,11.95
2019-04-01T21:30:10.840Z,11.73
2019-04-01T21:32:40.283Z,13.55
2019-04-01T21:35:09.776Z,13.65
2019-04-01T21:37:39.230Z,12.07
2019-04-01T21:40:08.647Z,11.90
2019-04-01T21:42:38.096Z,13.78
2019-04-01T21:45:08.384Z,14.43
2019-04-01T21:47:37.853Z,14.03
2019-04-01T21:50:07.269Z,12.88
2019-04-01T21:52:36.711Z,13.98
2019-04-01T21:55:08.294Z,13.08
2019-04-01T21:57:37.996Z,13.43
2019-04-01T22:00:09.849Z,17.32
2019-04-01T22:02:39.298Z,19.17
2019-04-01T22:05:10.165Z,12.58
2019-04-01T22:07:40.036Z,16.75
2019-04-01T22:10:11.079Z,11.88
2019-04-01T22:12:40.516Z,14.65
2019-04-01T22:15:09.973Z,15.03
2019-04-01T22:17:39.417Z,11.33
2019-04-01T22:20:10.217Z,10.10
2019-04-01T22:22:39.743Z,11.00
2019-04-01T22:25:09.187Z,9.40
2019-04-01T22:27:38.596Z,11.48
2019-04-01T22:30:08.105Z,10.28
2019-04-01T22:32:37.527Z,10.58
2019-04-01T22:35:08.588Z,12.65
2019-04-01T22:37:38.156Z,13.20
2019-04-01T22:40:07.603Z,13.78
2019-04-01T22:42:37.016Z,14.30
2019-04-01T22:45:07.336Z,15.50
2019-04-01T22:47:36.751Z,12.80
2019-04-01T22:50:06.870Z,10.23
2019-04-01T22:52:36.297Z,14.73
2019-04-01T22:55:06.198Z,14.73
2019-04-01T22:57:35.626Z,13.00
2019-04-01T23:00:05.734Z,10.10
2019-04-01T23:02:35.151Z,16.12
2019-04-01T23:05:05.989Z,13.93
2019-04-01T23:07:35.405Z,13.15
2019-04-01T23:10:06.554Z,11.80
2019-04-01T23:12:35.980Z,11.50
2019-04-01T23:15:06.859Z,9.88
2019-04-01T23:17:36.281Z,15.75
2019-04-01T23:20:05.990Z,13.08
2019-04-01T23:22:35.411Z,10.68
2019-04-01T23:25:05.591Z,11.85
2019-04-01T23:27:35.006Z,10.98
2019-04-01T23:30:07.668Z,9.75
2019-04-01T23:32:37.082Z,11.12
2019-04-01T23:35:07.405Z,10.50
2019-04-01T23:37:38.071Z,9.15
2019-04-01T23:40:07.841Z,9.60
2019-04-01T23:42:38.067Z,9.05
2019-04-01T23:45:08.345Z,10.13
2019-04-01T23:47:37.762Z,9.95
2019-04-01T23:50:09.153Z,8.78
2019-04-01T23:52:38.961Z,8.55
2019-04-01T23:55:08.405Z,8.33
2019-04-01T23:57:37.815Z,7.78
